createdAt,value
2023-02-05T00:01:21.950Z,2.03
2023-02-05T00:03:49.068Z,1.70
2023-02-05T00:06:15.800Z,1.80
2023-02-05T00:08:42.475Z,1.77
2023-02-05T00:11:11.669Z,2.10
2023-02-05T00:13:38.737Z,2.10
2023-02-05T00:16:09.228Z,1.97
2023-02-05T00:18:35.839Z,1.80
2023-02-05T00:21:02.423Z,1.80
2023-02-05T00:23:28.993Z,1.97
2023-02-05T00:25:55.586Z,1.77
2023-02-05T00:28:22.152Z,3.07
2023-02-05T00:30:49.092Z,2.30
2023-02-05T00:33:15.744Z,2.23
2023-02-05T00:35:43.206Z,2.10
2023-02-05T00:38:11.315Z,1.93
2023-02-05T00:40:37.932Z,2.50
2023-02-05T00:43:04.444Z,2.40
2023-02-05T00:45:35.262Z,2.60
2023-02-05T00:48:05.341Z,2.30
2023-02-05T00:50:32.541Z,2.30
2023-02-05T00:52:59.288Z,2.03
2023-02-05T00:55:25.840Z,2.40
2023-02-05T00:57:52.396Z,2.10
2023-02-05T01:00:19.240Z,2.37
2023-02-05T01:02:45.941Z,2.10
2023-02-05T01:05:12.508Z,2.50
2023-02-05T01:07:39.161Z,2.13
2023-02-05T01:10:06.278Z,2.60
2023-02-05T01:12:35.520Z,2.57
2023-02-05T01:15:02.420Z,2.27
2023-02-05T01:17:29.000Z,2.30
2023-02-05T01:19:55.632Z,2.00
2023-02-05T01:22:22.316Z,2.30
2023-02-05T01:24:49.923Z,2.43
2023-02-05T01:27:16.490Z,3.03
2023-02-05T01:29:42.997Z,2.73
2023-02-05T01:32:09.818Z,2.97
2023-02-05T01:34:36.499Z,2.57
2023-02-05T01:37:03.071Z,3.00
2023-02-05T01:39:29.633Z,2.33
2023-02-05T01:41:56.123Z,2.30
2023-02-05T01:44:24.824Z,2.60
2023-02-05T01:46:55.349Z,3.53
2023-02-05T01:49:21.837Z,4.30
2023-02-05T01:51:49.079Z,5.20
2023-02-05T01:54:16.512Z,5.73
2023-02-05T01:56:45.224Z,6.73
2023-02-05T01:59:20.310Z,8.93
2023-02-05T02:01:47.036Z,8.00
2023-02-05T02:04:18.830Z,7.77
2023-02-05T02:06:45.347Z,6.20
2023-02-05T02:09:13.355Z,6.00
2023-02-05T02:11:42.316Z,5.60
2023-02-05T02:14:09.486Z,4.40
2023-02-05T02:16:37.817Z,4.60
2023-02-05T02:19:12.781Z,4.17
2023-02-05T02:21:42.453Z,4.40
2023-02-05T02:24:21.070Z,4.50
2023-02-05T02:26:50.339Z,4.40
2023-02-05T02:29:37.180Z,3.57
2023-02-05T02:32:08.467Z,3.00
2023-02-05T02:34:38.113Z,2.50
2023-02-05T02:37:31.116Z,2.50
2023-02-05T02:40:00.467Z,2.30
2023-02-05T02:42:34.841Z,2.57
2023-02-05T02:45:02.995Z,2.50
2023-02-05T02:47:32.239Z,2.27
2023-02-05T02:50:01.384Z,2.27
2023-02-05T02:52:29.964Z,2.20
2023-02-05T02:54:58.114Z,2.30
2023-02-05T02:57:27.095Z,2.33
2023-02-05T02:59:56.407Z,2.13
2023-02-05T03:02:23.226Z,2.57
2023-02-05T03:04:56.141Z,1.90
2023-02-05T03:07:23.741Z,1.63
2023-02-05T03:09:52.933Z,1.90
2023-02-05T03:12:21.629Z,2.07
2023-02-05T03:14:48.370Z,1.97
2023-02-05T03:17:18.794Z,2.03
2023-02-05T03:19:48.784Z,2.77
2023-02-05T03:22:15.355Z,2.20
2023-02-05T03:24:42.448Z,2.20
2023-02-05T03:27:09.587Z,2.17
2023-02-05T03:29:39.194Z,2.30
2023-02-05T03:32:21.675Z,2.30
2023-02-05T03:35:01.189Z,2.43
2023-02-05T03:37:28.886Z,2.37
2023-02-05T03:40:05.858Z,3.60
2023-02-05T03:42:51.381Z,2.43
2023-02-05T03:45:26.229Z,2.17
2023-02-05T03:48:00.981Z,2.60
2023-02-05T03:50:31.559Z,2.20
2023-02-05T03:53:33.958Z,2.13
2023-02-05T03:56:05.676Z,1.80
2023-02-05T03:58:36.036Z,2.07
2023-02-05T04:01:06.336Z,2.40
2023-02-05T04:03:32.975Z,1.97
2023-02-05T04:05:59.529Z,2.10
2023-02-05T04:08:26.434Z,2.13
2023-02-05T04:10:53.720Z,2.37
2023-02-05T04:13:20.769Z,2.13
2023-02-05T04:15:48.982Z,2.10
2023-02-05T04:18:16.675Z,1.97
2023-02-05T04:20:44.636Z,2.27
2023-02-05T04:23:13.123Z,2.07
2023-02-05T04:25:40.879Z,2.27
2023-02-05T04:28:12.159Z,2.10
2023-02-05T04:30:40.164Z,4.07
2023-02-05T04:33:09.121Z,7.27
2023-02-05T04:35:36.134Z,5.90
2023-02-05T04:38:02.965Z,3.93
2023-02-05T04:40:30.010Z,3.50
2023-02-05T04:42:56.500Z,3.73
2023-02-05T04:45:23.058Z,3.20
2023-02-05T04:47:49.599Z,2.33
2023-02-05T04:50:16.230Z,2.43
2023-02-05T04:52:42.751Z,2.00
2023-02-05T04:55:09.280Z,2.30
2023-02-05T04:57:36.000Z,2.30
2023-02-05T05:00:02.518Z,2.47
2023-02-05T05:02:29.161Z,2.17
2023-02-05T05:04:55.681Z,2.30
2023-02-05T05:07:22.256Z,2.53
2023-02-05T05:09:49.463Z,2.83
2023-02-05T05:12:17.080Z,2.90
2023-02-05T05:14:43.637Z,2.60
2023-02-05T05:17:11.786Z,2.67
2023-02-05T05:19:38.315Z,2.40
2023-02-05T05:22:04.825Z,2.63
2023-02-05T05:24:31.396Z,2.20
2023-02-05T05:26:59.495Z,2.33
2023-02-05T05:29:26.045Z,2.87
2023-02-05T05:31:53.203Z,2.87
2023-02-05T05:34:20.220Z,2.30
2023-02-05T05:36:47.651Z,2.10
2023-02-05T05:39:32.831Z,2.47
2023-02-05T05:42:18.212Z,2.40
2023-02-05T05:44:44.800Z,2.33
2023-02-05T05:47:11.322Z,2.57
2023-02-05T05:49:37.874Z,2.23
2023-02-05T05:52:04.512Z,2.20
2023-02-05T05:54:31.125Z,2.23
2023-02-05T05:56:57.640Z,2.57
2023-02-05T05:59:24.172Z,2.40
2023-02-05T06:01:50.702Z,2.50
2023-02-05T06:04:17.384Z,2.10
2023-02-05T06:06:43.936Z,2.00
2023-02-05T06:09:10.499Z,2.70
2023-02-05T06:11:37.130Z,2.87
2023-02-05T06:14:03.705Z,3.03
2023-02-05T06:16:30.250Z,4.47
2023-02-05T06:18:57.004Z,6.13
2023-02-05T06:21:23.674Z,7.13
2023-02-05T06:23:50.207Z,6.73
2023-02-05T06:26:16.792Z,7.90
2023-02-05T06:28:43.350Z,7.93
2023-02-05T06:31:09.978Z,5.60
2023-02-05T06:33:36.593Z,4.73
2023-02-05T06:36:03.227Z,4.47
2023-02-05T06:38:29.732Z,3.27
2023-02-05T06:40:56.242Z,2.90
2023-02-05T06:43:22.770Z,3.30
2023-02-05T06:45:49.338Z,3.20
2023-02-05T06:48:15.873Z,2.27
2023-02-05T06:50:42.447Z,2.17
2023-02-05T06:53:10.521Z,2.00
2023-02-05T06:55:38.995Z,2.37
2023-02-05T06:58:07.464Z,2.10
2023-02-05T07:00:34.414Z,6.57
2023-02-05T07:03:00.990Z,8.70
2023-02-05T07:05:27.653Z,2.80
2023-02-05T07:07:54.153Z,2.40
2023-02-05T07:10:20.735Z,2.40
2023-02-05T07:12:47.226Z,2.33
2023-02-05T07:15:13.708Z,2.40
2023-02-05T07:17:40.259Z,2.10
2023-02-05T07:20:06.927Z,3.13
2023-02-05T07:22:33.580Z,4.10
2023-02-05T07:25:02.617Z,3.13
2023-02-05T07:27:30.814Z,5.43
2023-02-05T07:29:57.374Z,12.00
2023-02-05T07:32:23.890Z,4.40
2023-02-05T07:34:50.494Z,2.93
2023-02-05T07:37:17.115Z,4.50
2023-02-05T07:39:43.721Z,4.63
2023-02-05T07:42:10.264Z,2.67
2023-02-05T07:44:43.513Z,1.93
2023-02-05T07:47:10.061Z,2.13
2023-02-05T07:49:36.669Z,2.10
2023-02-05T07:52:03.393Z,3.00
2023-02-05T07:54:29.948Z,2.30
2023-02-05T07:56:56.538Z,2.50
2023-02-05T07:59:23.068Z,25.27
2023-02-05T08:01:49.598Z,43.00
2023-02-05T08:04:16.117Z,20.30
2023-02-05T08:06:43.183Z,7.13
2023-02-05T08:09:10.662Z,11.27
2023-02-05T08:11:37.144Z,15.03
2023-02-05T08:14:03.694Z,12.97
2023-02-05T08:16:31.501Z,7.93
2023-02-05T08:18:58.346Z,4.23
2023-02-05T08:21:24.949Z,3.07
2023-02-05T08:23:51.518Z,3.93
2023-02-05T08:26:18.417Z,3.30
2023-02-05T08:28:46.002Z,3.60
2023-02-05T08:31:14.255Z,2.93
2023-02-05T08:33:40.835Z,3.00
2023-02-05T08:36:07.622Z,2.50
2023-02-05T08:38:34.190Z,2.80
2023-02-05T08:41:03.918Z,2.67
2023-02-05T08:43:30.428Z,2.60
2023-02-05T08:45:57.017Z,2.77
2023-02-05T08:48:23.535Z,2.53
2023-02-05T08:50:50.252Z,3.07
2023-02-05T08:53:16.741Z,4.03
2023-02-05T08:55:43.272Z,3.30
2023-02-05T08:58:09.858Z,2.23
2023-02-05T09:00:38.963Z,2.63
2023-02-05T09:03:06.663Z,2.33
2023-02-05T09:05:33.497Z,2.50
2023-02-05T09:08:00.283Z,2.23
2023-02-05T09:10:26.756Z,3.07
2023-02-05T09:12:53.704Z,2.80
2023-02-05T09:15:20.182Z,2.70
2023-02-05T09:17:46.969Z,2.60
2023-02-05T09:20:13.597Z,2.33
2023-02-05T09:22:40.139Z,3.07
2023-02-05T09:25:07.343Z,2.70
2023-02-05T09:27:34.197Z,2.70
2023-02-05T09:30:00.737Z,2.30
2023-02-05T09:32:27.239Z,2.20
2023-02-05T09:34:53.871Z,2.27
2023-02-05T09:37:20.394Z,2.33
2023-02-05T09:42:39.709Z,2.60
2023-02-05T09:45:16.777Z,2.10
2023-02-05T09:47:52.725Z,2.20
2023-02-05T09:50:25.906Z,2.60
2023-02-05T09:52:54.920Z,4.00
2023-02-05T09:55:24.166Z,4.00
2023-02-05T09:57:53.392Z,2.13
2023-02-05T10:00:22.816Z,2.37
2023-02-05T10:03:15.480Z,3.63
2023-02-05T10:05:58.140Z,2.43
2023-02-05T10:08:30.364Z,6.50
2023-02-05T10:10:57.396Z,7.93
2023-02-05T10:13:29.699Z,5.63
2023-02-05T10:16:23.316Z,5.60
2023-02-05T10:19:16.046Z,4.13
2023-02-05T10:22:06.623Z,2.50
2023-02-05T10:24:51.769Z,2.80
2023-02-05T10:27:22.764Z,3.70
2023-02-05T10:29:55.289Z,4.53
2023-02-05T10:32:23.663Z,2.50
2023-02-05T10:34:57.372Z,2.80
2023-02-05T10:37:36.160Z,4.10
2023-02-05T10:40:10.836Z,3.13
2023-02-05T10:42:44.246Z,4.23
2023-02-05T10:45:10.891Z,6.63
2023-02-05T10:47:56.062Z,6.60
2023-02-05T10:50:41.271Z,19.57
2023-02-05T10:53:07.899Z,13.73
2023-02-05T10:55:34.734Z,4.00
2023-02-05T10:58:02.627Z,4.20
2023-02-05T11:00:29.244Z,5.57
2023-02-05T11:02:58.662Z,7.53
2023-02-05T11:05:25.256Z,22.03
2023-02-05T11:07:52.945Z,6.37
2023-02-05T11:10:24.264Z,3.77
2023-02-05T11:12:56.346Z,4.40
2023-02-05T11:15:22.869Z,3.80
2023-02-05T11:18:00.560Z,3.73
2023-02-05T11:20:34.691Z,3.70
2023-02-05T11:23:18.007Z,3.50
2023-02-05T11:25:51.991Z,3.10
2023-02-05T11:28:20.280Z,2.77
2023-02-05T11:30:51.104Z,2.40
2023-02-05T11:33:18.334Z,3.30
2023-02-05T11:35:52.495Z,2.97
2023-02-05T11:38:29.802Z,4.10
2023-02-05T11:41:00.393Z,3.40
2023-02-05T11:43:34.763Z,4.30
2023-02-05T11:46:02.382Z,5.37
2023-02-05T11:48:46.146Z,8.07
2023-02-05T11:51:15.317Z,5.97
2023-02-05T11:53:54.266Z,3.53
2023-02-05T11:56:25.162Z,3.80
2023-02-05T11:59:02.567Z,3.87
2023-02-05T12:01:33.808Z,6.87
2023-02-05T12:04:00.441Z,4.00
2023-02-05T12:06:31.864Z,3.60
2023-02-05T12:08:58.407Z,3.40
2023-02-05T12:11:27.900Z,3.40
2023-02-05T12:14:16.480Z,3.93
2023-02-05T12:16:48.656Z,3.50
2023-02-05T12:19:19.630Z,3.27
2023-02-05T12:21:46.089Z,3.10
2023-02-05T12:24:15.736Z,3.07
2023-02-05T12:26:44.098Z,3.20
2023-02-05T12:29:10.543Z,3.60
2023-02-05T12:31:37.133Z,3.97
2023-02-05T12:34:29.869Z,4.03
2023-02-05T12:37:02.310Z,3.10
2023-02-05T12:39:37.939Z,6.47
2023-02-05T12:42:20.219Z,7.30
2023-02-05T12:45:06.957Z,3.87
2023-02-05T12:47:39.556Z,2.90
2023-02-05T12:50:14.713Z,3.00
2023-02-05T12:52:41.182Z,3.37
2023-02-05T12:55:17.306Z,2.63
2023-02-05T12:57:49.900Z,2.80
2023-02-05T13:00:19.731Z,2.40
2023-02-05T13:02:49.404Z,2.20
2023-02-05T13:05:18.971Z,2.60
2023-02-05T13:07:55.854Z,2.30
2023-02-05T13:10:24.229Z,2.53
2023-02-05T13:12:53.016Z,2.50
2023-02-05T13:15:21.618Z,2.10
2023-02-05T13:17:55.431Z,1.90
2023-02-05T13:20:44.233Z,2.57
2023-02-05T13:23:29.513Z,3.00
2023-02-05T13:26:14.600Z,2.50
2023-02-05T13:28:47.193Z,2.40
2023-02-05T13:31:13.778Z,4.00
2023-02-05T13:33:40.520Z,3.40
2023-02-05T13:36:21.867Z,4.77
2023-02-05T13:38:54.520Z,3.50
2023-02-05T13:41:41.446Z,2.43
2023-02-05T13:44:17.901Z,3.43
2023-02-05T13:46:52.673Z,4.80
2023-02-05T13:49:38.029Z,2.73
2023-02-05T13:52:25.237Z,2.20
2023-02-05T13:55:10.448Z,2.60
2023-02-05T13:57:48.869Z,2.70
2023-02-05T14:00:15.778Z,2.10
2023-02-05T14:02:44.239Z,2.10
2023-02-05T14:05:13.579Z,2.30
2023-02-05T14:07:47.658Z,2.23
2023-02-05T14:10:25.938Z,2.30
2023-02-05T14:12:52.661Z,3.10
2023-02-05T14:15:20.156Z,2.27
2023-02-05T14:17:46.681Z,2.07
2023-02-05T14:20:25.220Z,1.90
2023-02-05T14:22:54.688Z,2.00
2023-02-05T14:25:36.993Z,2.10
2023-02-05T14:28:23.997Z,1.97
2023-02-05T14:30:52.171Z,4.40
2023-02-05T14:33:35.614Z,4.97
2023-02-05T14:36:17.388Z,3.70
2023-02-05T14:38:45.269Z,3.60
2023-02-05T14:41:13.325Z,3.27
2023-02-05T14:43:40.914Z,2.50
2023-02-05T14:46:21.112Z,2.37
2023-02-05T14:48:48.133Z,5.57
2023-02-05T14:51:14.590Z,7.13
2023-02-05T14:53:41.561Z,6.47
2023-02-05T14:56:08.768Z,5.37
2023-02-05T14:58:40.918Z,4.83
2023-02-05T15:01:25.992Z,3.93
2023-02-05T15:03:52.969Z,4.40
2023-02-05T15:06:19.784Z,5.37
2023-02-05T15:08:53.198Z,5.17
2023-02-05T15:11:38.254Z,6.90
2023-02-05T15:14:20.327Z,4.07
2023-02-05T15:16:47.410Z,1.90
2023-02-05T15:19:16.416Z,2.20
2023-02-05T15:21:46.231Z,1.73
2023-02-05T15:24:15.103Z,1.67
2023-02-05T15:26:45.244Z,1.40
2023-02-05T15:29:14.576Z,1.70
2023-02-05T15:31:41.569Z,1.60
2023-02-05T15:34:21.587Z,1.73
2023-02-05T15:37:14.414Z,1.73
2023-02-05T15:39:47.599Z,1.60
2023-02-05T15:42:16.963Z,1.43
2023-02-05T15:44:43.509Z,1.90
2023-02-05T15:47:21.034Z,2.17
2023-02-05T15:49:49.856Z,4.50
2023-02-05T15:52:21.205Z,12.27
2023-02-05T15:54:48.449Z,10.93
2023-02-05T15:57:19.934Z,3.30
2023-02-05T15:59:46.594Z,2.70
2023-02-05T16:02:24.861Z,3.30
2023-02-05T16:04:58.662Z,2.50
2023-02-05T16:07:27.077Z,2.67
2023-02-05T16:09:58.041Z,3.57
2023-02-05T16:12:24.779Z,5.30
2023-02-05T16:15:05.147Z,6.60
2023-02-05T16:17:39.471Z,6.40
2023-02-05T16:20:06.035Z,6.63
2023-02-05T16:22:47.371Z,9.03
2023-02-05T16:25:20.029Z,12.47
2023-02-05T16:27:49.275Z,14.07
2023-02-05T16:30:30.667Z,15.57
2023-02-05T16:32:58.182Z,15.90
2023-02-05T16:35:28.957Z,17.60
2023-02-05T16:37:55.722Z,14.57
2023-02-05T16:40:35.699Z,10.77
2023-02-05T16:43:18.226Z,8.13
2023-02-05T16:46:03.609Z,10.27
2023-02-05T16:48:30.247Z,8.07
2023-02-05T16:50:57.895Z,7.30
2023-02-05T16:53:26.795Z,8.83
2023-02-05T16:55:58.402Z,9.37
2023-02-05T16:58:26.960Z,20.73
2023-02-05T17:00:55.148Z,14.83
2023-02-05T17:03:21.819Z,13.40
2023-02-05T17:05:56.368Z,11.63
2023-02-05T17:08:30.720Z,9.63
2023-02-05T17:10:58.573Z,7.13
2023-02-05T17:13:28.260Z,8.63
2023-02-05T17:15:55.017Z,13.20
2023-02-05T17:18:23.423Z,11.10
2023-02-05T17:20:50.090Z,11.20
2023-02-05T17:23:17.478Z,14.53
2023-02-05T17:25:46.727Z,16.00
2023-02-05T17:28:15.817Z,20.00
2023-02-05T17:30:43.614Z,23.50
2023-02-05T17:33:13.800Z,22.03
2023-02-05T17:35:40.551Z,16.70
2023-02-05T17:38:07.069Z,16.50
2023-02-05T17:40:33.839Z,21.40
2023-02-05T17:43:00.575Z,23.47
2023-02-05T17:45:28.498Z,21.43
2023-02-05T17:47:55.109Z,20.00
2023-02-05T17:50:21.990Z,22.17
2023-02-05T17:52:48.542Z,19.80
2023-02-05T17:55:16.114Z,15.17
2023-02-05T17:57:43.519Z,17.53
2023-02-05T18:00:14.533Z,12.13
2023-02-05T18:02:41.017Z,12.63
2023-02-05T18:05:07.772Z,14.00
2023-02-05T18:07:35.074Z,14.07
2023-02-05T18:10:01.887Z,16.40
2023-02-05T18:12:28.515Z,10.17
2023-02-05T18:14:55.042Z,10.00
2023-02-05T18:17:21.565Z,9.83
2023-02-05T18:19:48.154Z,10.00
2023-02-05T18:22:14.779Z,9.77
2023-02-05T18:24:41.355Z,9.47
2023-02-05T18:27:08.384Z,10.47
2023-02-05T18:29:35.299Z,10.33
2023-02-05T18:32:01.969Z,7.83
2023-02-05T18:34:28.479Z,8.83
2023-02-05T18:36:55.018Z,9.07
2023-02-05T18:39:21.540Z,7.83
2023-02-05T18:41:48.081Z,7.13
2023-02-05T18:44:16.035Z,5.80
2023-02-05T18:46:42.556Z,4.80
2023-02-05T18:49:09.477Z,5.40
2023-02-05T18:51:37.370Z,5.23
2023-02-05T18:54:06.586Z,6.60
2023-02-05T18:56:33.193Z,7.10
2023-02-05T18:59:02.910Z,7.13
2023-02-05T19:01:35.768Z,13.20
2023-02-05T19:04:06.488Z,8.63
2023-02-05T19:06:33.673Z,13.13
2023-02-05T19:09:00.581Z,12.47
2023-02-05T19:11:27.521Z,7.90
2023-02-05T19:14:04.871Z,8.63
2023-02-05T19:16:33.666Z,7.43
2023-02-05T19:19:00.639Z,5.13
2023-02-05T19:21:29.178Z,4.43
2023-02-05T19:23:56.384Z,4.30
2023-02-05T19:26:24.741Z,4.23
2023-02-05T19:28:52.847Z,3.97
2023-02-05T19:31:19.444Z,5.00
2023-02-05T19:33:46.438Z,5.70
2023-02-05T19:36:12.965Z,5.03
2023-02-05T19:38:40.438Z,4.40
2023-02-05T19:41:07.417Z,4.73
2023-02-05T19:43:33.992Z,4.70
2023-02-05T19:46:04.114Z,4.90
2023-02-05T19:48:30.904Z,5.33
2023-02-05T19:51:03.237Z,5.97
2023-02-05T19:53:29.716Z,5.20
2023-02-05T19:56:01.042Z,6.70
2023-02-05T19:58:27.560Z,6.90
2023-02-05T20:00:54.071Z,5.90
2023-02-05T20:03:20.783Z,7.38
2023-02-05T20:05:47.273Z,6.40
2023-02-05T20:08:13.850Z,6.63
2023-02-05T20:10:40.403Z,7.47
2023-02-05T20:13:07.493Z,6.53
2023-02-05T20:15:35.801Z,6.80
2023-02-05T20:18:02.332Z,6.33
2023-02-05T20:20:33.834Z,45.00
2023-02-05T20:23:00.620Z,23.70
2023-02-05T20:25:27.132Z,8.57
2023-02-05T20:27:53.681Z,6.83
2023-02-05T20:30:39.159Z,18.10
2023-02-05T20:33:05.699Z,18.33
2023-02-05T20:35:34.869Z,12.40
2023-02-05T20:38:01.394Z,9.87
2023-02-05T20:40:27.915Z,9.17
2023-02-05T20:42:54.466Z,9.00
2023-02-05T20:45:21.018Z,13.17
2023-02-05T20:47:47.618Z,15.30
2023-02-05T20:50:14.179Z,12.93
2023-02-05T20:52:40.662Z,14.00
2023-02-05T20:55:07.703Z,10.10
2023-02-05T20:57:34.675Z,11.20
2023-02-05T21:00:01.140Z,9.20
2023-02-05T21:02:27.994Z,12.57
2023-02-05T21:04:54.550Z,13.30
2023-02-05T21:07:25.109Z,13.47
2023-02-05T21:09:51.786Z,12.63
2023-02-05T21:12:18.313Z,13.80
2023-02-05T21:14:44.832Z,13.43
2023-02-05T21:17:11.671Z,12.73
2023-02-05T21:19:38.638Z,11.13
2023-02-05T21:22:05.143Z,8.57
2023-02-05T21:24:31.696Z,9.20
2023-02-05T21:26:58.272Z,8.83
2023-02-05T21:29:24.812Z,8.70
2023-02-05T21:31:53.201Z,8.10
2023-02-05T21:34:21.840Z,8.00
2023-02-05T21:36:48.996Z,7.40
2023-02-05T21:39:16.158Z,8.40
2023-02-05T21:41:43.414Z,9.43
2023-02-05T21:44:09.987Z,8.37
2023-02-05T21:46:36.592Z,10.10
2023-02-05T21:49:04.067Z,7.43
2023-02-05T21:51:32.212Z,7.77
2023-02-05T21:53:59.759Z,7.90
2023-02-05T21:56:28.713Z,7.97
2023-02-05T21:58:55.325Z,7.73
2023-02-05T22:01:23.616Z,8.30
2023-02-05T22:03:51.822Z,7.00
2023-02-05T22:06:18.905Z,8.67
2023-02-05T22:08:50.726Z,9.13
2023-02-05T22:11:18.429Z,7.40
2023-02-05T22:13:45.998Z,6.20
2023-02-05T22:16:14.754Z,5.43
2023-02-05T22:18:41.714Z,5.70
2023-02-05T22:21:09.353Z,5.17
2023-02-05T22:23:35.952Z,5.50
2023-02-05T22:26:02.586Z,5.57
2023-02-05T22:28:29.160Z,5.00
2023-02-05T22:30:59.434Z,6.40
2023-02-05T22:33:26.016Z,7.17
2023-02-05T22:35:52.724Z,6.67
2023-02-05T22:38:19.243Z,7.27
2023-02-05T22:40:45.774Z,8.13
2023-02-05T22:43:12.319Z,8.90
2023-02-05T22:45:38.870Z,8.60
2023-02-05T22:48:08.158Z,7.17
2023-02-05T22:50:40.383Z,7.60
2023-02-05T22:53:08.659Z,7.23
2023-02-05T22:55:36.194Z,7.13
2023-02-05T22:58:03.247Z,7.20
2023-02-05T23:00:30.902Z,7.00
2023-02-05T23:02:58.107Z,7.00
2023-02-05T23:05:25.019Z,7.67
2023-02-05T23:07:52.295Z,9.30
2023-02-05T23:10:19.628Z,8.13
2023-02-05T23:12:46.213Z,7.10
2023-02-05T23:15:13.229Z,8.27
2023-02-05T23:17:39.790Z,7.77
2023-02-05T23:20:07.243Z,7.70
2023-02-05T23:22:34.009Z,7.90
2023-02-05T23:25:00.870Z,6.87
2023-02-05T23:27:27.885Z,7.30
2023-02-05T23:29:54.443Z,6.63
2023-02-05T23:32:20.988Z,6.70
2023-02-05T23:34:47.500Z,7.73
2023-02-05T23:37:14.046Z,9.93
2023-02-05T23:39:40.534Z,10.03
2023-02-05T23:42:07.305Z,13.23
2023-02-05T23:44:33.822Z,14.07
2023-02-05T23:47:00.333Z,11.50
2023-02-05T23:49:26.856Z,8.70
2023-02-05T23:51:54.080Z,8.93
2023-02-05T23:54:21.160Z,7.07
2023-02-05T23:56:47.955Z,7.03
2023-02-05T23:59:14.722Z,6.53
